createdAt,value
2022-10-08T00:00:33.392Z,8.73
2022-10-08T00:05:37.538Z,8.87
2022-10-08T00:10:41.680Z,9.01
2022-10-08T00:15:45.865Z,8.95
2022-10-08T00:20:50.059Z,9.10
2022-10-08T00:25:54.195Z,9.18
2022-10-08T00:30:58.357Z,9.16
2022-10-08T00:36:02.518Z,9.13
2022-10-08T00:41:06.707Z,9.30
2022-10-08T00:46:10.940Z,9.44
2022-10-08T00:51:14.999Z,9.48
2022-10-08T00:56:17.252Z,9.53
2022-10-08T01:01:21.505Z,9.61
2022-10-08T01:06:25.556Z,9.66
2022-10-08T01:11:29.762Z,9.73
2022-10-08T01:16:33.962Z,9.73
2022-10-08T01:21:36.191Z,9.77
2022-10-08T01:26:40.343Z,9.82
2022-10-08T01:31:42.792Z,9.84
2022-10-08T01:36:46.791Z,9.88
2022-10-08T01:41:49.024Z,10.00
2022-10-08T01:46:53.229Z,10.11
2022-10-08T01:51:57.380Z,10.21
2022-10-08T01:56:59.640Z,10.29
2022-10-08T02:02:03.876Z,10.40
2022-10-08T02:07:07.945Z,10.72
2022-10-08T02:17:16.260Z,10.88
2022-10-08T02:22:20.451Z,10.88
2022-10-08T02:27:24.590Z,10.92
2022-10-08T02:32:28.784Z,11.00
2022-10-08T02:37:32.915Z,11.09
2022-10-08T02:42:37.118Z,11.10
2022-10-08T02:47:41.265Z,11.16
2022-10-08T02:52:45.796Z,11.22
2022-10-08T02:57:49.564Z,11.35
2022-10-08T03:02:53.717Z,11.47
2022-10-08T03:07:57.898Z,11.58
2022-10-08T03:13:02.075Z,11.61
2022-10-08T03:18:06.183Z,11.74
2022-10-08T03:23:10.360Z,11.79
2022-10-08T03:28:14.629Z,11.80
2022-10-08T03:33:18.678Z,11.78
2022-10-08T03:38:22.869Z,11.82
2022-10-08T03:43:27.046Z,11.75
2022-10-08T03:48:29.271Z,11.63
2022-10-08T03:53:33.456Z,11.55
2022-10-08T03:58:37.610Z,11.48
2022-10-08T04:03:41.779Z,11.37
2022-10-08T04:08:45.931Z,11.29
2022-10-08T04:13:48.233Z,11.23
2022-10-08T04:18:52.378Z,11.17
2022-10-08T04:23:56.526Z,11.13
2022-10-08T04:29:00.672Z,11.03
2022-10-08T04:34:04.881Z,10.95
2022-10-08T04:39:09.027Z,10.85
2022-10-08T04:44:13.147Z,10.84
2022-10-08T04:49:17.337Z,10.81
2022-10-08T04:54:21.517Z,10.79
2022-10-08T04:59:25.666Z,10.78
2022-10-08T05:04:29.830Z,10.79
2022-10-08T05:09:34.000Z,10.78
2022-10-08T05:14:38.157Z,10.76
2022-10-08T05:19:42.307Z,10.77
2022-10-08T05:29:50.614Z,10.73
2022-10-08T05:34:54.820Z,10.74
2022-10-08T05:39:58.934Z,10.73
2022-10-08T05:45:03.068Z,10.71
2022-10-08T05:50:07.545Z,10.68
2022-10-08T05:55:11.450Z,10.69
2022-10-08T06:00:15.585Z,10.70
2022-10-08T06:05:17.867Z,10.71
2022-10-08T06:10:22.010Z,10.72
2022-10-08T06:15:26.193Z,10.73
2022-10-08T06:20:32.125Z,10.77
2022-10-08T06:25:34.474Z,10.79
2022-10-08T06:30:38.635Z,10.82
2022-10-08T06:35:42.786Z,10.83
2022-10-08T06:40:46.987Z,10.85
2022-10-08T06:45:51.147Z,10.91
2022-10-08T06:50:55.303Z,11.01
2022-10-08T06:55:59.452Z,11.08
2022-10-08T07:01:03.765Z,11.18
2022-10-08T07:06:07.797Z,11.21
2022-10-08T07:16:20.483Z,11.23
2022-10-08T07:21:20.297Z,11.26
2022-10-08T07:26:24.419Z,11.42
2022-10-08T07:31:28.647Z,11.61
2022-10-08T07:36:32.735Z,11.66
2022-10-08T07:41:36.926Z,11.72
2022-10-08T07:46:41.069Z,11.80
2022-10-08T07:51:45.202Z,11.92
2022-10-08T07:56:47.502Z,11.99
2022-10-08T08:01:51.693Z,12.08
2022-10-08T08:06:53.952Z,12.20
2022-10-08T08:11:58.114Z,12.30
2022-10-08T08:17:02.287Z,12.44
2022-10-08T08:22:04.509Z,12.66
2022-10-08T08:27:08.653Z,12.71
2022-10-08T08:32:12.958Z,12.67
2022-10-08T08:37:17.013Z,12.72
2022-10-08T08:42:21.176Z,12.87
2022-10-08T08:47:25.330Z,12.90
2022-10-08T08:52:29.472Z,12.97
2022-10-08T08:57:33.654Z,12.96
2022-10-08T09:02:37.801Z,13.12
2022-10-08T09:07:41.959Z,13.06
2022-10-08T09:12:46.437Z,13.14
2022-10-08T09:17:50.288Z,13.32
2022-10-08T09:22:54.475Z,13.61
2022-10-08T09:27:58.625Z,13.64
2022-10-08T09:33:02.755Z,13.67
2022-10-08T09:38:06.946Z,13.86
2022-10-08T09:43:11.119Z,14.14
2022-10-08T09:48:15.216Z,14.65
2022-10-08T09:53:19.426Z,14.45
2022-10-08T09:58:23.557Z,14.45
2022-10-08T10:03:31.820Z,14.70
2022-10-08T10:08:29.974Z,15.22
2022-10-08T10:13:34.148Z,15.47
2022-10-08T10:18:36.420Z,15.64
2022-10-08T10:23:40.586Z,15.81
2022-10-08T10:28:44.783Z,16.10
2022-10-08T10:33:48.897Z,15.82
2022-10-08T10:38:53.066Z,15.38
2022-10-08T10:43:57.211Z,15.15
2022-10-08T10:49:01.390Z,14.90
2022-10-08T10:54:05.515Z,15.18
2022-10-08T10:59:09.682Z,15.59
2022-10-08T11:04:13.856Z,15.52
2022-10-08T11:09:19.061Z,15.60
2022-10-08T11:14:22.193Z,15.54
2022-10-08T11:19:26.329Z,15.37
2022-10-08T11:24:30.649Z,15.47
2022-10-08T11:29:34.626Z,15.73
2022-10-08T11:34:38.831Z,15.43
2022-10-08T11:39:42.968Z,15.07
2022-10-08T11:44:47.119Z,14.80
2022-10-08T11:49:51.428Z,14.46
2022-10-08T11:54:56.024Z,14.25
2022-10-08T12:00:02.021Z,14.12
2022-10-08T12:05:01.921Z,13.92
2022-10-08T12:10:06.032Z,14.36
2022-10-08T12:15:08.357Z,14.83
2022-10-08T12:20:12.599Z,14.92
2022-10-08T12:25:16.628Z,15.22
2022-10-08T12:30:20.783Z,15.41
2022-10-08T12:35:25.000Z,15.73
2022-10-08T12:40:29.146Z,15.99
2022-10-08T12:45:33.316Z,16.33
2022-10-08T12:50:37.478Z,16.31
2022-10-08T12:55:41.634Z,15.99
2022-10-08T13:00:45.876Z,15.78
2022-10-08T13:05:49.937Z,15.92
2022-10-08T13:10:54.101Z,16.58
2022-10-08T13:15:58.294Z,16.81
2022-10-08T13:21:02.417Z,16.66
2022-10-08T13:31:10.770Z,16.00
2022-10-08T13:36:14.914Z,16.09
2022-10-08T13:41:19.082Z,16.72
2022-10-08T13:46:23.272Z,16.86
2022-10-08T13:51:27.351Z,16.27
2022-10-08T13:56:31.491Z,15.81
2022-10-08T14:01:35.732Z,15.28
2022-10-08T14:06:37.948Z,14.95
2022-10-08T14:11:42.089Z,14.76
2022-10-08T14:16:44.474Z,14.67
2022-10-08T14:21:48.549Z,15.36
2022-10-08T14:26:52.681Z,15.91
2022-10-08T14:31:56.940Z,16.21
2022-10-08T14:37:01.013Z,16.33
2022-10-08T14:42:05.184Z,16.07
2022-10-08T14:47:09.353Z,15.45
2022-10-08T14:52:13.499Z,15.13
2022-10-08T14:57:17.637Z,15.13
2022-10-08T15:02:21.845Z,15.05
2022-10-08T15:07:25.970Z,14.84
2022-10-08T15:17:34.319Z,14.75
2022-10-08T15:22:38.455Z,14.81
2022-10-08T15:27:42.624Z,14.79
2022-10-08T15:32:46.994Z,14.80
2022-10-08T15:37:50.944Z,14.80
2022-10-08T15:42:55.101Z,14.73
2022-10-08T15:47:59.270Z,15.40
2022-10-08T15:53:03.452Z,15.50
2022-10-08T15:58:07.568Z,16.89
2022-10-08T16:03:11.762Z,17.21
2022-10-08T16:08:14.011Z,16.07
2022-10-08T16:13:18.166Z,15.23
2022-10-08T16:18:20.456Z,14.71
2022-10-08T16:23:24.583Z,14.38
2022-10-08T16:28:26.947Z,14.19
2022-10-08T16:33:31.015Z,13.95
2022-10-08T16:43:39.354Z,13.61
2022-10-08T16:48:43.490Z,13.18
2022-10-08T16:53:47.663Z,12.93
2022-10-08T16:58:51.849Z,12.75
2022-10-08T17:03:55.997Z,12.59
2022-10-08T17:09:00.187Z,12.40
2022-10-08T17:14:04.285Z,12.24
2022-10-08T17:19:08.494Z,12.06
2022-10-08T17:24:12.694Z,11.82
2022-10-08T17:29:16.786Z,11.50
2022-10-08T17:34:20.961Z,11.22
2022-10-08T17:39:25.120Z,11.01
2022-10-08T17:44:31.296Z,10.81
2022-10-08T17:49:33.464Z,10.53
2022-10-08T17:54:35.720Z,10.27
2022-10-08T17:59:39.885Z,10.00
2022-10-08T18:04:44.056Z,9.80
2022-10-08T18:09:48.211Z,9.63
2022-10-08T18:14:52.353Z,9.45
2022-10-08T18:19:54.640Z,9.25
2022-10-08T18:24:58.777Z,9.04
2022-10-08T18:30:02.976Z,8.87
2022-10-08T18:35:05.204Z,8.73
2022-10-08T18:40:09.420Z,8.64
2022-10-08T18:45:13.539Z,8.50
2022-10-08T18:50:17.720Z,8.40
2022-10-08T18:55:21.885Z,8.32
2022-10-08T19:00:26.033Z,8.24
2022-10-08T19:05:30.190Z,8.20
2022-10-08T19:10:34.368Z,8.09
2022-10-08T19:15:40.571Z,8.06
2022-10-08T19:20:42.654Z,8.01
2022-10-08T19:25:46.845Z,7.96
2022-10-08T19:30:51.057Z,7.92
2022-10-08T19:35:55.175Z,7.82
2022-10-08T19:40:59.344Z,7.67
2022-10-08T19:46:03.579Z,7.57
2022-10-08T19:51:07.680Z,7.48
2022-10-08T19:56:11.810Z,7.40
2022-10-08T20:01:15.978Z,7.33
2022-10-08T20:06:24.235Z,7.21
2022-10-08T20:11:24.327Z,7.13
2022-10-08T20:16:28.505Z,7.10
2022-10-08T20:21:30.745Z,7.05
2022-10-08T20:26:34.920Z,7.12
2022-10-08T20:31:39.104Z,6.96
2022-10-08T20:36:43.224Z,6.83
2022-10-08T20:41:51.636Z,6.80
2022-10-08T20:46:51.657Z,6.89
2022-10-08T20:51:55.734Z,6.79
2022-10-08T20:57:04.114Z,6.66
2022-10-08T21:02:04.158Z,6.55
2022-10-08T21:07:08.257Z,6.45
2022-10-08T21:12:12.403Z,6.50
2022-10-08T21:17:16.529Z,6.40
2022-10-08T21:22:20.779Z,6.36
2022-10-08T21:27:24.835Z,6.31
2022-10-08T21:32:28.992Z,6.16
2022-10-08T21:37:34.760Z,6.07
2022-10-08T21:42:37.376Z,6.05
2022-10-08T21:47:41.476Z,5.99
2022-10-08T21:52:46.036Z,5.92
2022-10-08T21:57:49.815Z,5.81
2022-10-08T22:02:54.011Z,5.78
2022-10-08T22:07:56.433Z,5.82
2022-10-08T22:13:00.583Z,5.72
2022-10-08T22:18:04.583Z,5.68
2022-10-08T22:23:08.755Z,5.67
2022-10-08T22:28:12.981Z,5.57
2022-10-08T22:33:17.103Z,5.49
2022-10-08T22:38:21.233Z,5.43
2022-10-08T22:43:25.771Z,5.37
2022-10-08T22:48:29.564Z,5.33
2022-10-08T22:53:33.714Z,5.28
2022-10-08T22:58:37.909Z,5.32
2022-10-08T23:03:42.132Z,5.28
2022-10-08T23:08:46.219Z,5.20
2022-10-08T23:13:50.378Z,5.10
2022-10-08T23:18:54.581Z,5.08
2022-10-08T23:23:58.707Z,5.10
2022-10-08T23:29:02.865Z,5.03
2022-10-08T23:34:07.038Z,4.97
2022-10-08T23:39:11.184Z,4.93
2022-10-08T23:44:15.399Z,4.87
2022-10-08T23:49:19.525Z,4.78
2022-10-08T23:54:21.780Z,4.77
2022-10-08T23:59:25.981Z,4.75
